createdAt,value
2019-02-21T00:01:18.042Z,7.07
2019-02-21T00:03:44.670Z,7.77
2019-02-21T00:06:10.956Z,7.83
2019-02-21T00:08:37.582Z,7.53
2019-02-21T00:11:04.256Z,7.03
2019-02-21T00:13:30.983Z,7.37
2019-02-21T00:15:57.365Z,7.30
2019-02-21T00:18:23.886Z,7.87
2019-02-21T00:20:50.558Z,8.03
2019-02-21T00:23:16.833Z,7.13
2019-02-21T00:25:43.470Z,8.77
2019-02-21T00:28:09.841Z,8.83
2019-02-21T00:30:36.478Z,7.97
2019-02-21T00:33:02.788Z,7.77
2019-02-21T00:35:29.047Z,8.43
2019-02-21T00:37:55.688Z,8.03
2019-02-21T00:40:21.960Z,7.60
2019-02-21T00:42:48.246Z,7.67
2019-02-21T00:45:14.882Z,7.60
2019-02-21T00:47:41.525Z,7.97
2019-02-21T00:50:08.151Z,9.53
2019-02-21T00:52:34.758Z,9.07
2019-02-21T00:55:01.017Z,9.03
2019-02-21T00:57:27.641Z,8.57
2019-02-21T00:59:54.262Z,7.43
2019-02-21T01:02:20.563Z,7.70
2019-02-21T01:04:47.319Z,7.10
2019-02-21T01:07:13.933Z,6.77
2019-02-21T01:09:40.503Z,6.73
2019-02-21T01:12:07.134Z,7.00
2019-02-21T01:14:33.797Z,6.50
2019-02-21T01:17:00.430Z,5.53
2019-02-21T01:19:27.079Z,5.90
2019-02-21T01:21:53.358Z,6.23
2019-02-21T01:24:19.954Z,5.73
2019-02-21T01:26:46.590Z,5.87
2019-02-21T01:29:13.211Z,7.00
2019-02-21T01:31:39.833Z,6.20
2019-02-21T01:34:06.109Z,5.80
2019-02-21T01:36:32.420Z,5.27
2019-02-21T01:38:58.691Z,5.87
2019-02-21T01:41:24.986Z,5.90
2019-02-21T01:43:51.630Z,6.10
2019-02-21T01:46:17.939Z,6.40
2019-02-21T01:48:44.222Z,5.60
2019-02-21T01:51:10.869Z,5.67
2019-02-21T01:53:37.138Z,5.27
2019-02-21T01:56:03.445Z,5.00
2019-02-21T01:58:30.337Z,5.50
2019-02-21T02:01:07.633Z,5.00
2019-02-21T02:03:25.333Z,5.47
2019-02-21T02:05:51.691Z,5.30
2019-02-21T02:08:18.330Z,5.20
2019-02-21T02:10:44.593Z,5.20
2019-02-21T02:13:23.783Z,6.70
2019-02-21T02:15:39.374Z,5.93
2019-02-21T02:18:06.024Z,5.57
2019-02-21T02:20:32.385Z,6.00
2019-02-21T02:22:59.058Z,4.97
2019-02-21T02:25:25.324Z,5.40
2019-02-21T02:27:51.951Z,5.40
2019-02-21T02:30:18.214Z,5.20
2019-02-21T02:32:44.478Z,5.57
2019-02-21T02:35:10.888Z,5.70
2019-02-21T02:37:37.522Z,6.90
2019-02-21T02:40:04.659Z,5.97
2019-02-21T02:42:31.269Z,6.10
2019-02-21T02:44:57.970Z,7.83
2019-02-21T02:47:24.594Z,6.13
2019-02-21T02:49:51.251Z,5.43
2019-02-21T02:52:17.521Z,5.33
2019-02-21T02:54:44.138Z,6.03
2019-02-21T02:57:10.668Z,6.80
2019-02-21T02:59:40.764Z,6.73
2019-02-21T03:02:05.416Z,6.17
2019-02-21T03:04:31.720Z,6.43
2019-02-21T03:06:58.015Z,5.80
2019-02-21T03:09:24.627Z,7.37
2019-02-21T03:11:52.082Z,6.67
2019-02-21T03:14:18.479Z,6.20
2019-02-21T03:16:45.117Z,6.30
2019-02-21T03:19:12.012Z,5.90
2019-02-21T03:21:38.279Z,5.73
2019-02-21T03:24:04.590Z,6.40
2019-02-21T03:26:31.044Z,7.00
2019-02-21T03:28:57.293Z,7.67
2019-02-21T03:31:23.930Z,5.97
2019-02-21T03:33:50.596Z,6.07
2019-02-21T03:36:17.221Z,6.50
2019-02-21T03:38:43.846Z,6.23
2019-02-21T03:41:10.463Z,6.60
2019-02-21T03:43:37.083Z,6.30
2019-02-21T03:46:03.375Z,6.33
2019-02-21T03:48:29.626Z,5.53
2019-02-21T03:50:56.297Z,6.30
2019-02-21T03:53:22.934Z,6.60
2019-02-21T03:55:49.590Z,6.10
2019-02-21T03:58:17.579Z,6.37
2019-02-21T04:00:43.885Z,6.63
2019-02-21T04:03:10.620Z,7.13
2019-02-21T04:05:37.221Z,8.40
2019-02-21T04:08:03.492Z,7.30
2019-02-21T04:10:29.751Z,6.43
2019-02-21T04:12:56.418Z,6.53
2019-02-21T04:15:22.920Z,6.63
2019-02-21T04:17:49.488Z,6.80
2019-02-21T04:20:16.109Z,5.90
2019-02-21T04:22:42.764Z,6.03
2019-02-21T04:25:09.365Z,5.90
2019-02-21T04:27:35.689Z,6.30
2019-02-21T04:30:02.519Z,6.40
2019-02-21T04:32:28.808Z,6.23
2019-02-21T04:34:55.061Z,6.73
2019-02-21T04:37:21.731Z,6.20
2019-02-21T04:39:48.009Z,6.20
2019-02-21T04:42:14.655Z,5.57
2019-02-21T04:44:40.909Z,6.90
2019-02-21T04:47:07.293Z,5.73
2019-02-21T05:04:23.906Z,6.17
2019-02-21T05:06:50.165Z,5.50
2019-02-21T05:09:16.392Z,5.43
2019-02-21T05:11:43.003Z,5.03
2019-02-21T05:14:09.286Z,5.20
2019-02-21T05:16:35.941Z,5.83
2019-02-21T05:19:02.216Z,5.93
2019-02-21T05:21:28.834Z,5.50
2019-02-21T05:23:55.701Z,7.20
2019-02-21T05:26:24.245Z,6.10
2019-02-21T05:28:51.159Z,5.63
2019-02-21T05:31:19.338Z,6.37
2019-02-21T05:33:47.853Z,5.80
2019-02-21T05:36:22.033Z,6.93
2019-02-21T05:38:50.200Z,9.23
2019-02-21T05:41:27.521Z,8.47
2019-02-21T05:43:55.667Z,7.77
2019-02-21T05:46:30.099Z,6.73
2019-02-21T05:49:04.605Z,6.57
2019-02-21T05:51:33.145Z,7.23
2019-02-21T05:54:01.682Z,7.07
2019-02-21T05:56:39.234Z,6.23
2019-02-21T05:59:10.216Z,5.80
2019-02-21T06:01:47.561Z,6.40
2019-02-21T06:04:19.556Z,6.50
2019-02-21T06:06:48.210Z,6.17
2019-02-21T06:09:22.721Z,7.27
2019-02-21T06:11:51.262Z,6.30
2019-02-21T06:14:25.252Z,7.33
2019-02-21T06:16:59.712Z,6.77
2019-02-21T06:19:34.546Z,7.27
2019-02-21T06:22:10.522Z,8.23
2019-02-21T06:24:38.988Z,8.50
2019-02-21T06:27:07.499Z,8.07
2019-02-21T06:29:36.059Z,7.53
2019-02-21T06:32:13.564Z,6.43
2019-02-21T06:34:31.749Z,7.53
2019-02-21T06:36:58.446Z,7.80
2019-02-21T06:39:26.037Z,8.77
2019-02-21T06:41:59.787Z,9.00
2019-02-21T06:44:21.569Z,8.97
2019-02-21T06:46:48.210Z,10.63
2019-02-21T06:49:15.149Z,8.93
2019-02-21T06:51:41.798Z,7.50
2019-02-21T06:54:08.425Z,8.97
2019-02-21T06:56:35.161Z,8.47
2019-02-21T06:59:01.800Z,10.47
2019-02-21T07:01:29.573Z,10.07
2019-02-21T07:03:55.970Z,9.53
2019-02-21T07:06:31.605Z,10.80
2019-02-21T07:08:50.693Z,9.30
2019-02-21T07:11:17.358Z,8.97
2019-02-21T07:13:43.981Z,9.83
2019-02-21T07:16:12.990Z,9.77
2019-02-21T07:18:40.818Z,8.83
2019-02-21T07:21:07.154Z,10.43
2019-02-21T07:23:43.157Z,9.40
2019-02-21T07:26:03.019Z,8.43
2019-02-21T07:28:29.667Z,9.40
2019-02-21T07:30:58.187Z,8.80
2019-02-21T07:33:28.373Z,9.17
2019-02-21T07:35:52.922Z,9.13
2019-02-21T07:38:19.210Z,8.87
2019-02-21T07:40:45.839Z,10.17
2019-02-21T07:43:13.017Z,10.00
2019-02-21T07:45:39.718Z,9.17
2019-02-21T07:48:08.262Z,7.93
2019-02-21T07:50:35.183Z,9.07
2019-02-21T07:53:02.908Z,7.67
2019-02-21T07:55:29.463Z,7.10
2019-02-21T08:03:56.855Z,8.07
2019-02-21T08:06:23.507Z,9.37
2019-02-21T08:08:50.314Z,7.20
2019-02-21T08:11:16.958Z,9.77
2019-02-21T08:13:43.582Z,9.83
2019-02-21T08:16:12.361Z,8.63
2019-02-21T08:21:47.920Z,8.40
2019-02-21T08:24:14.807Z,10.17
2019-02-21T08:26:41.457Z,8.20
2019-02-21T08:29:07.714Z,7.13
2019-02-21T08:31:34.377Z,9.60
2019-02-21T08:34:04.317Z,9.17
2019-02-21T08:36:30.979Z,9.03
2019-02-21T08:38:57.241Z,8.97
2019-02-21T08:41:25.773Z,7.97
2019-02-21T08:43:52.307Z,9.10
2019-02-21T08:46:18.553Z,8.30
2019-02-21T08:48:47.783Z,8.90
2019-02-21T08:51:13.642Z,8.63
2019-02-21T08:53:40.593Z,7.97
2019-02-21T08:56:07.210Z,8.07
2019-02-21T08:58:33.857Z,8.07
2019-02-21T09:01:00.330Z,8.30
2019-02-21T09:03:26.617Z,6.73
2019-02-21T09:05:53.227Z,6.73
2019-02-21T09:08:19.866Z,7.87
2019-02-21T09:10:48.384Z,7.43
2019-02-21T09:13:16.203Z,8.33
2019-02-21T09:15:42.837Z,7.47
2019-02-21T09:18:09.462Z,5.70
2019-02-21T09:20:35.762Z,6.90
2019-02-21T09:23:02.385Z,7.17
2019-02-21T09:25:28.664Z,7.63
2019-02-21T09:27:55.975Z,7.67
2019-02-21T09:30:22.623Z,8.30
2019-02-21T09:32:52.137Z,8.10
2019-02-21T09:35:18.770Z,6.27
2019-02-21T09:37:45.342Z,6.67
2019-02-21T09:40:14.980Z,6.20
2019-02-21T09:42:41.621Z,6.90
2019-02-21T09:45:15.897Z,7.00
2019-02-21T09:47:42.181Z,6.87
2019-02-21T09:50:08.997Z,5.67
2019-02-21T09:52:35.665Z,6.07
2019-02-21T09:55:02.990Z,6.50
2019-02-21T09:57:29.632Z,6.17
2019-02-21T09:59:56.246Z,5.40
2019-02-21T10:02:23.213Z,5.37
2019-02-21T10:04:49.882Z,6.33
2019-02-21T10:07:16.529Z,6.00
2019-02-21T10:09:44.103Z,5.60
2019-02-21T10:12:10.718Z,5.60
2019-02-21T10:14:37.399Z,6.33
2019-02-21T10:17:05.593Z,5.73
2019-02-21T10:19:32.221Z,4.83
2019-02-21T10:21:58.873Z,5.30
2019-02-21T10:24:25.509Z,5.30
2019-02-21T10:26:52.414Z,5.03
2019-02-21T10:29:19.301Z,5.10
2019-02-21T10:31:47.219Z,4.77
2019-02-21T10:34:13.826Z,5.40
2019-02-21T10:36:45.263Z,5.13
2019-02-21T10:39:11.885Z,4.73
2019-02-21T10:41:38.563Z,5.57
2019-02-21T10:44:05.190Z,4.93
2019-02-21T10:46:31.822Z,5.40
2019-02-21T10:48:58.151Z,4.77
2019-02-21T10:51:24.705Z,4.67
2019-02-21T10:53:51.342Z,5.23
2019-02-21T10:56:18.089Z,4.80
2019-02-21T10:58:44.741Z,4.83
2019-02-21T11:01:12.608Z,5.17
2019-02-21T11:03:40.245Z,5.43
2019-02-21T11:06:06.610Z,4.27
2019-02-21T11:08:33.295Z,4.60
2019-02-21T11:10:59.910Z,4.73
2019-02-21T11:13:26.579Z,4.40
2019-02-21T11:15:53.449Z,4.00
2019-02-21T11:18:20.069Z,3.87
2019-02-21T11:20:46.705Z,3.23
2019-02-21T11:23:14.436Z,4.00
2019-02-21T11:25:41.078Z,4.97
2019-02-21T11:28:07.338Z,4.97
2019-02-21T11:30:33.745Z,3.83
2019-02-21T11:32:59.998Z,4.43
2019-02-21T11:35:26.658Z,4.07
2019-02-21T11:37:53.581Z,3.67
2019-02-21T11:40:21.872Z,3.77
2019-02-21T11:42:48.491Z,4.47
2019-02-21T11:45:17.054Z,3.50
2019-02-21T11:47:43.994Z,4.10
2019-02-21T11:50:11.414Z,3.90
2019-02-21T11:52:40.761Z,4.57
2019-02-21T11:55:09.194Z,5.17
2019-02-21T11:57:36.162Z,4.57
2019-02-21T12:00:04.704Z,4.37
2019-02-21T12:02:38.587Z,4.67
2019-02-21T12:07:58.241Z,3.73
2019-02-21T12:10:26.453Z,4.27
2019-02-21T12:12:53.104Z,3.67
2019-02-21T12:15:19.491Z,3.67
2019-02-21T12:17:45.794Z,3.67
2019-02-21T12:20:14.324Z,3.73
2019-02-21T12:22:40.955Z,3.57
2019-02-21T12:25:10.137Z,3.73
2019-02-21T12:27:36.753Z,8.50
2019-02-21T12:30:05.197Z,7.53
2019-02-21T12:32:31.476Z,7.90
2019-02-21T12:34:58.135Z,4.93
2019-02-21T12:37:26.206Z,6.87
2019-02-21T12:39:52.496Z,5.20
2019-02-21T12:42:18.743Z,4.30
2019-02-21T12:44:47.788Z,4.60
2019-02-21T12:47:14.853Z,4.60
2019-02-21T12:49:41.477Z,4.20
2019-02-21T12:52:07.777Z,4.20
2019-02-21T12:54:34.414Z,4.23
2019-02-21T12:57:00.719Z,5.10
2019-02-21T12:59:26.997Z,4.50
2019-02-21T13:01:53.298Z,4.10
2019-02-21T13:04:19.925Z,4.03
2019-02-21T13:06:46.590Z,4.57
2019-02-21T13:09:13.183Z,3.73
2019-02-21T13:11:39.851Z,104.70
2019-02-21T13:14:06.473Z,76.33
2019-02-21T13:16:32.766Z,50.10
2019-02-21T13:18:59.038Z,29.87
2019-02-21T13:21:25.351Z,19.47
2019-02-21T13:23:53.857Z,12.50
2019-02-21T13:26:20.471Z,9.97
2019-02-21T13:28:47.168Z,9.00
2019-02-21T13:31:13.554Z,6.60
2019-02-21T13:33:41.741Z,6.13
2019-02-21T13:36:09.346Z,5.27
2019-02-21T13:38:36.234Z,4.90
2019-02-21T13:41:02.910Z,5.60
2019-02-21T13:43:29.176Z,6.40
2019-02-21T14:01:53.341Z,4.90
2019-02-21T14:04:19.992Z,5.60
2019-02-21T14:06:46.632Z,6.20
2019-02-21T14:09:13.529Z,5.97
2019-02-21T14:11:40.159Z,5.70
2019-02-21T14:14:06.471Z,5.70
2019-02-21T14:16:33.082Z,7.03
2019-02-21T14:18:59.756Z,6.27
2019-02-21T14:21:26.418Z,6.03
2019-02-21T14:23:52.690Z,7.70
2019-02-21T14:26:18.967Z,6.60
2019-02-21T14:28:45.277Z,6.10
2019-02-21T14:31:13.935Z,6.67
2019-02-21T14:33:40.231Z,7.13
2019-02-21T14:36:15.228Z,6.73
2019-02-21T14:38:37.709Z,7.30
2019-02-21T14:41:04.665Z,8.30
2019-02-21T14:43:31.289Z,7.67
2019-02-21T14:45:57.954Z,6.63
2019-02-21T14:48:26.694Z,6.77
2019-02-21T14:50:52.677Z,6.27
2019-02-21T14:53:19.309Z,6.80
2019-02-21T14:55:45.619Z,6.77
2019-02-21T14:58:11.931Z,7.17
2019-02-21T15:00:39.759Z,6.80
2019-02-21T15:03:06.422Z,6.70
2019-02-21T15:05:33.339Z,6.97
2019-02-21T15:07:59.627Z,6.73
2019-02-21T15:10:26.249Z,8.00
2019-02-21T15:12:53.179Z,6.20
2019-02-21T15:15:26.499Z,6.20
2019-02-21T15:17:53.249Z,6.00
2019-02-21T15:20:19.868Z,5.77
2019-02-21T15:22:46.569Z,5.63
2019-02-21T15:25:13.283Z,5.40
2019-02-21T15:27:39.658Z,5.60
2019-02-21T15:30:08.087Z,6.00
2019-02-21T15:32:34.737Z,6.27
2019-02-21T15:35:01.026Z,4.57
2019-02-21T15:37:27.647Z,5.37
2019-02-21T15:39:54.304Z,5.70
2019-02-21T15:42:21.124Z,5.33
2019-02-21T15:44:47.764Z,5.60
2019-02-21T15:47:14.063Z,5.47
2019-02-21T15:52:06.650Z,4.90
2019-02-21T15:54:33.282Z,4.00
2019-02-21T15:56:59.741Z,3.07
2019-02-21T15:59:26.368Z,2.87
2019-02-21T16:01:53.015Z,2.50
2019-02-21T16:04:19.666Z,2.67
2019-02-21T16:06:51.853Z,2.67
2019-02-21T16:09:16.567Z,2.40
2019-02-21T16:11:42.858Z,2.23
2019-02-21T16:14:09.487Z,2.23
2019-02-21T16:16:36.126Z,1.97
2019-02-21T16:19:02.774Z,2.20
2019-02-21T16:21:29.082Z,2.23
2019-02-21T16:23:55.696Z,2.40
2019-02-21T16:26:22.321Z,2.47
2019-02-21T16:28:48.950Z,2.20
2019-02-21T16:31:15.609Z,2.20
2019-02-21T16:33:42.277Z,2.30
2019-02-21T16:36:08.915Z,2.67
2019-02-21T16:38:35.572Z,2.23
2019-02-21T16:41:02.206Z,2.27
2019-02-21T16:43:28.879Z,2.10
2019-02-21T16:46:07.110Z,2.40
2019-02-21T16:48:24.546Z,2.43
2019-02-21T16:50:51.158Z,2.37
2019-02-21T16:53:17.781Z,2.27
2019-02-21T16:55:44.422Z,1.80
2019-02-21T16:58:11.313Z,2.20
2019-02-21T17:00:50.406Z,2.23
2019-02-21T17:03:07.181Z,2.67
2019-02-21T17:05:33.817Z,2.07
2019-02-21T17:08:00.094Z,2.10
2019-02-21T17:10:26.742Z,2.33
2019-02-21T17:12:55.109Z,2.23
2019-02-21T17:15:21.853Z,1.90
2019-02-21T17:17:48.489Z,2.20
2019-02-21T17:20:19.155Z,1.87
2019-02-21T17:22:46.607Z,2.03
2019-02-21T17:25:13.772Z,2.67
2019-02-21T17:27:40.500Z,2.23
2019-02-21T17:30:09.024Z,2.60
2019-02-21T17:32:35.653Z,2.00
2019-02-21T17:35:02.400Z,2.60
2019-02-21T17:37:29.024Z,2.80
2019-02-21T17:39:55.649Z,3.30
2019-02-21T17:42:23.291Z,3.50
2019-02-21T17:44:52.080Z,3.10
2019-02-21T17:47:18.412Z,3.20
2019-02-21T17:49:45.061Z,3.43
2019-02-21T17:52:12.973Z,3.30
2019-02-21T18:06:08.960Z,3.30
2019-02-21T18:08:37.538Z,4.17
2019-02-21T18:11:03.915Z,3.80
2019-02-21T18:13:30.572Z,3.33
2019-02-21T18:15:57.217Z,3.30
2019-02-21T18:24:06.001Z,3.77
2019-02-21T18:26:32.617Z,3.87
2019-02-21T18:28:58.954Z,3.47
2019-02-21T18:31:25.586Z,3.10
2019-02-21T18:33:52.890Z,4.20
2019-02-21T18:36:19.497Z,4.07
2019-02-21T18:38:46.419Z,3.67
2019-02-21T18:41:13.094Z,4.70
2019-02-21T18:43:39.602Z,4.97
2019-02-21T18:46:05.919Z,3.97
2019-02-21T18:48:32.176Z,3.80
2019-02-21T18:50:58.837Z,4.20
2019-02-21T18:53:25.461Z,3.20
2019-02-21T18:55:53.654Z,3.70
2019-02-21T18:58:19.918Z,3.57
2019-02-21T19:00:46.846Z,3.63
2019-02-21T19:03:13.502Z,3.50
2019-02-21T19:05:39.812Z,3.33
2019-02-21T19:08:09.704Z,4.23
2019-02-21T19:10:36.321Z,17.37
2019-02-21T19:13:03.361Z,9.23
2019-02-21T19:15:29.827Z,5.47
2019-02-21T19:17:56.254Z,5.25
2019-02-21T19:20:22.518Z,3.70
2019-02-21T19:22:49.472Z,3.47
2019-02-21T19:25:16.517Z,3.80
2019-02-21T19:33:10.473Z,4.30
2019-02-21T19:35:37.106Z,3.93
2019-02-21T19:38:10.527Z,4.63
2019-02-21T19:40:33.047Z,5.00
2019-02-21T19:43:00.228Z,3.70
2019-02-21T19:45:26.587Z,4.33
2019-02-21T19:47:53.342Z,4.20
2019-02-21T19:50:20.893Z,3.70
2019-02-21T19:52:47.262Z,3.90
2019-02-21T19:55:14.005Z,4.17
2019-02-21T19:57:40.686Z,4.10
2019-02-21T20:00:14.895Z,4.10
2019-02-21T20:02:41.633Z,4.17
2019-02-21T20:05:08.383Z,4.00
2019-02-21T20:07:36.443Z,4.80
2019-02-21T20:10:05.497Z,4.43
2019-02-21T20:12:31.766Z,4.40
2019-02-21T20:14:58.327Z,3.80
2019-02-21T20:17:24.873Z,4.80
2019-02-21T20:19:51.138Z,6.85
2019-02-21T20:22:17.801Z,6.85
2019-02-21T20:24:44.434Z,5.10
2019-02-21T20:27:11.201Z,4.63
2019-02-21T20:29:37.843Z,4.30
2019-02-21T20:32:04.209Z,4.10
2019-02-21T20:34:31.097Z,4.53
2019-02-21T20:36:59.032Z,4.10
2019-02-21T20:39:25.737Z,3.73
2019-02-21T20:41:52.553Z,4.20
2019-02-21T20:44:19.153Z,4.10
2019-02-21T20:46:45.672Z,4.87
2019-02-21T20:49:12.710Z,4.43
2019-02-21T20:51:38.966Z,4.25
2019-02-21T20:54:05.715Z,5.58
2019-02-21T20:56:31.984Z,5.47
2019-02-21T20:58:58.310Z,4.67
2019-02-21T21:01:24.917Z,4.67
2019-02-21T21:03:51.586Z,6.37
2019-02-21T21:06:18.078Z,4.97
2019-02-21T21:08:46.731Z,4.60
2019-02-21T21:11:13.102Z,5.17
2019-02-21T21:13:39.744Z,4.23
2019-02-21T21:16:06.363Z,4.53
2019-02-21T21:18:33.080Z,4.50
2019-02-21T21:20:59.978Z,5.67
2019-02-21T21:23:26.597Z,7.15
2019-02-21T21:25:54.474Z,6.20
2019-02-21T21:28:21.082Z,5.23
2019-02-21T21:30:47.754Z,4.40
2019-02-21T21:33:14.324Z,5.23
2019-02-21T21:35:40.710Z,4.90
2019-02-21T21:38:07.014Z,5.40
2019-02-21T21:40:33.661Z,6.87
2019-02-21T21:42:59.933Z,5.37
2019-02-21T21:45:26.777Z,5.40
2019-02-21T21:47:53.395Z,4.83
2019-02-21T21:50:20.037Z,4.93
2019-02-21T21:52:46.675Z,5.07
2019-02-21T21:55:13.156Z,4.60
2019-02-21T21:57:39.550Z,5.37
2019-02-21T22:00:22.655Z,4.70
2019-02-21T22:02:49.277Z,5.43
2019-02-21T22:05:15.898Z,4.50
2019-02-21T22:07:42.359Z,4.87
2019-02-21T22:10:10.407Z,4.90
2019-02-21T22:12:37.038Z,4.87
2019-02-21T22:15:05.366Z,4.43
2019-02-21T22:17:31.994Z,4.97
2019-02-21T22:19:58.610Z,5.00
2019-02-21T22:22:25.235Z,4.93
2019-02-21T22:24:51.878Z,4.93
2019-02-21T22:27:18.147Z,5.23
2019-02-21T22:29:44.939Z,5.83
2019-02-21T22:32:11.208Z,4.73
2019-02-21T22:34:37.506Z,5.33
2019-02-21T22:37:04.045Z,5.03
2019-02-21T22:39:30.677Z,5.30
2019-02-21T22:41:57.399Z,4.77
2019-02-21T22:44:24.044Z,5.23
2019-02-21T22:46:50.304Z,5.13
2019-02-21T22:49:16.788Z,5.83
2019-02-21T22:51:43.422Z,4.93
2019-02-21T22:54:10.082Z,5.33
2019-02-21T22:56:36.349Z,6.33
2019-02-21T22:59:03.001Z,5.63
2019-02-21T23:01:30.018Z,5.63
2019-02-21T23:04:00.034Z,6.13
2019-02-21T23:06:28.810Z,6.40
2019-02-21T23:08:55.449Z,6.10
2019-02-21T23:11:22.429Z,5.53
2019-02-21T23:13:49.194Z,5.50
2019-02-21T23:16:15.861Z,5.30
2019-02-21T23:18:42.417Z,6.50
2019-02-21T23:21:09.886Z,6.50
2019-02-21T23:23:36.279Z,6.10
2019-02-21T23:26:03.014Z,6.77
2019-02-21T23:28:29.667Z,6.07
2019-02-21T23:30:56.330Z,6.83
2019-02-21T23:33:24.149Z,6.57
2019-02-21T23:35:50.472Z,6.60
2019-02-21T23:38:17.101Z,6.63
2019-02-21T23:40:43.748Z,7.00
2019-02-21T23:43:10.378Z,7.10
2019-02-21T23:45:37.166Z,7.20
2019-02-21T23:48:03.814Z,6.20
2019-02-21T23:50:30.445Z,6.43
2019-02-21T23:52:58.640Z,7.30
2019-02-21T23:55:25.590Z,7.03
2019-02-21T23:57:52.250Z,7.17
